sensor_id;sensor_type;location;lat;lon;timestamp;temperature;humidity
44359;DHT22;30077;52.474;13.326;2023-08-01T00:02:22;18.80;99.90
44359;DHT22;30077;52.474;13.326;2023-08-01T00:07:22;18.70;99.90
44359;DHT22;30077;52.474;13.326;2023-08-01T00:12:24;18.70;99.90
44359;DHT22;30077;52.474;13.326;2023-08-01T00:17:25;18.60;99.90
44359;DHT22;30077;52.474;13.326;2023-08-01T00:22:26;18.80;99.90
44359;DHT22;30077;52.474;13.326;2023-08-01T00:27:28;18.50;99.90
44359;DHT22;30077;52.474;13.326;2023-08-01T00:32:29;18.40;99.90
44359;DHT22;30077;52.474;13.326;2023-08-01T00:37:30;18.30;99.90
44359;DHT22;30077;52.474;13.326;2023-08-01T00:42:30;18.20;99.90
44359;DHT22;30077;52.474;13.326;2023-08-01T00:47:31;18.20;99.90
44359;DHT22;30077;52.474;13.326;2023-08-01T00:52:32;18.00;99.90
44359;DHT22;30077;52.474;13.326;2023-08-01T00:57:32;17.90;99.90
44359;DHT22;30077;52.474;13.326;2023-08-01T01:02:34;17.90;99.90
44359;DHT22;30077;52.474;13.326;2023-08-01T01:07:37;17.80;99.90
44359;DHT22;30077;52.474;13.326;2023-08-01T01:12:37;17.80;99.90
44359;DHT22;30077;52.474;13.326;2023-08-01T01:17:40;17.90;99.90
44359;DHT22;30077;52.474;13.326;2023-08-01T01:22:41;17.90;99.90
44359;DHT22;30077;52.474;13.326;2023-08-01T01:27:43;17.90;99.90
44359;DHT22;30077;52.474;13.326;2023-08-01T01:32:46;17.90;99.90
44359;DHT22;30077;52.474;13.326;2023-08-01T01:37:46;17.90;99.90
44359;DHT22;30077;52.474;13.326;2023-08-01T01:42:47;17.90;99.90
44359;DHT22;30077;52.474;13.326;2023-08-01T01:47:49;17.90;99.90
44359;DHT22;30077;52.474;13.326;2023-08-01T01:52:50;17.90;99.90
44359;DHT22;30077;52.474;13.326;2023-08-01T01:57:50;18.00;99.90
44359;DHT22;30077;52.474;13.326;2023-08-01T02:02:51;17.90;99.90
44359;DHT22;30077;52.474;13.326;2023-08-01T02:07:52;17.90;99.90
44359;DHT22;30077;52.474;13.326;2023-08-01T02:12:52;18.00;99.90
44359;DHT22;30077;52.474;13.326;2023-08-01T02:17:53;17.90;99.90
44359;DHT22;30077;52.474;13.326;2023-08-01T02:22:53;17.80;99.90
44359;DHT22;30077;52.474;13.326;2023-08-01T02:27:54;17.80;99.90
44359;DHT22;30077;52.474;13.326;2023-08-01T02:32:55;17.80;99.90
44359;DHT22;30077;52.474;13.326;2023-08-01T02:37:56;17.80;99.90
44359;DHT22;30077;52.474;13.326;2023-08-01T02:42:56;17.80;99.90
44359;DHT22;30077;52.474;13.326;2023-08-01T02:47:57;17.80;99.90
44359;DHT22;30077;52.474;13.326;2023-08-01T02:52:58;17.70;99.90
44359;DHT22;30077;52.474;13.326;2023-08-01T02:57:58;17.70;99.90
44359;DHT22;30077;52.474;13.326;2023-08-01T03:02:59;17.70;99.90
44359;DHT22;30077;52.474;13.326;2023-08-01T03:08:00;17.70;99.90
44359;DHT22;30077;52.474;13.326;2023-08-01T03:13:00;17.70;99.90
44359;DHT22;30077;52.474;13.326;2023-08-01T03:18:01;17.70;99.90
44359;DHT22;30077;52.474;13.326;2023-08-01T03:23:02;17.60;99.90
44359;DHT22;30077;52.474;13.326;2023-08-01T03:28:04;17.60;99.90
44359;DHT22;30077;52.474;13.326;2023-08-01T03:33:04;17.60;99.90
44359;DHT22;30077;52.474;13.326;2023-08-01T03:38:05;17.60;99.90
44359;DHT22;30077;52.474;13.326;2023-08-01T03:43:06;17.60;99.90
44359;DHT22;30077;52.474;13.326;2023-08-01T03:48:06;17.60;99.90
44359;DHT22;30077;52.474;13.326;2023-08-01T03:53:07;17.50;99.90
44359;DHT22;30077;52.474;13.326;2023-08-01T03:58:08;17.60;99.90
44359;DHT22;30077;52.474;13.326;2023-08-01T04:03:08;17.60;99.90
44359;DHT22;30077;52.474;13.326;2023-08-01T04:08:09;17.70;99.90
44359;DHT22;30077;52.474;13.326;2023-08-01T04:13:10;17.80;99.90
44359;DHT22;30077;52.474;13.326;2023-08-01T04:18:10;17.80;99.90
44359;DHT22;30077;52.474;13.326;2023-08-01T04:23:11;17.90;99.90
44359;DHT22;30077;52.474;13.326;2023-08-01T04:28:12;18.00;99.90
44359;DHT22;30077;52.474;13.326;2023-08-01T04:33:12;18.10;99.90
44359;DHT22;30077;52.474;13.326;2023-08-01T04:38:13;18.20;99.90
44359;DHT22;30077;52.474;13.326;2023-08-01T04:43:13;18.30;99.90
44359;DHT22;30077;52.474;13.326;2023-08-01T04:48:14;18.20;99.90
44359;DHT22;30077;52.474;13.326;2023-08-01T04:53:15;18.20;99.90
44359;DHT22;30077;52.474;13.326;2023-08-01T04:58:15;18.20;99.90
44359;DHT22;30077;52.474;13.326;2023-08-01T05:03:16;18.30;99.90
44359;DHT22;30077;52.474;13.326;2023-08-01T05:08:17;18.30;99.90
44359;DHT22;30077;52.474;13.326;2023-08-01T05:13:18;18.30;99.90
44359;DHT22;30077;52.474;13.326;2023-08-01T05:18:19;18.40;99.90
44359;DHT22;30077;52.474;13.326;2023-08-01T05:23:20;18.40;99.90
44359;DHT22;30077;52.474;13.326;2023-08-01T05:28:21;18.50;99.90
44359;DHT22;30077;52.474;13.326;2023-08-01T05:33:22;18.60;99.90
44359;DHT22;30077;52.474;13.326;2023-08-01T05:38:22;18.70;99.90
44359;DHT22;30077;52.474;13.326;2023-08-01T05:43:23;18.70;99.90
44359;DHT22;30077;52.474;13.326;2023-08-01T05:48:24;18.90;99.90
44359;DHT22;30077;52.474;13.326;2023-08-01T05:53:24;18.90;99.90
44359;DHT22;30077;52.474;13.326;2023-08-01T05:58:25;18.90;99.90
44359;DHT22;30077;52.474;13.326;2023-08-01T06:03:27;18.90;99.90
44359;DHT22;30077;52.474;13.326;2023-08-01T06:08:27;18.80;99.90
44359;DHT22;30077;52.474;13.326;2023-08-01T06:13:30;19.00;99.90
44359;DHT22;30077;52.474;13.326;2023-08-01T06:18:31;19.20;99.90
44359;DHT22;30077;52.474;13.326;2023-08-01T06:23:31;19.10;99.90
44359;DHT22;30077;52.474;13.326;2023-08-01T06:28:32;19.20;99.90
44359;DHT22;30077;52.474;13.326;2023-08-01T06:33:33;19.30;99.90
44359;DHT22;30077;52.474;13.326;2023-08-01T06:38:33;19.30;99.90
44359;DHT22;30077;52.474;13.326;2023-08-01T06:43:34;19.30;99.90
44359;DHT22;30077;52.474;13.326;2023-08-01T06:48:37;19.40;99.90
44359;DHT22;30077;52.474;13.326;2023-08-01T06:53:38;19.50;99.90
44359;DHT22;30077;52.474;13.326;2023-08-01T06:58:38;19.60;99.90
44359;DHT22;30077;52.474;13.326;2023-08-01T07:03:39;19.60;99.90
44359;DHT22;30077;52.474;13.326;2023-08-01T07:08:40;19.70;99.90
44359;DHT22;30077;52.474;13.326;2023-08-01T07:13:40;19.80;99.90
44359;DHT22;30077;52.474;13.326;2023-08-01T07:18:41;20.20;99.90
44359;DHT22;30077;52.474;13.326;2023-08-01T07:23:42;20.40;99.90
44359;DHT22;30077;52.474;13.326;2023-08-01T07:28:43;20.70;99.90
44359;DHT22;30077;52.474;13.326;2023-08-01T07:33:44;20.90;99.90
44359;DHT22;30077;52.474;13.326;2023-08-01T07:38:44;21.10;99.90
44359;DHT22;30077;52.474;13.326;2023-08-01T07:43:45;21.30;99.90
44359;DHT22;30077;52.474;13.326;2023-08-01T07:48:46;21.70;99.90
44359;DHT22;30077;52.474;13.326;2023-08-01T07:53:47;21.70;99.90
44359;DHT22;30077;52.474;13.326;2023-08-01T07:58:47;22.00;99.90
44359;DHT22;30077;52.474;13.326;2023-08-01T08:03:48;22.20;99.90
44359;DHT22;30077;52.474;13.326;2023-08-01T08:08:49;22.40;99.90
44359;DHT22;30077;52.474;13.326;2023-08-01T08:13:50;22.60;99.90
44359;DHT22;30077;52.474;13.326;2023-08-01T08:18:51;23.10;99.90
44359;DHT22;30077;52.474;13.326;2023-08-01T08:23:51;23.40;99.90
44359;DHT22;30077;52.474;13.326;2023-08-01T08:28:53;23.40;99.90
44359;DHT22;30077;52.474;13.326;2023-08-01T08:33:55;23.20;99.90
44359;DHT22;30077;52.474;13.326;2023-08-01T08:38:55;23.10;99.90
44359;DHT22;30077;52.474;13.326;2023-08-01T08:43:57;23.30;99.90
44359;DHT22;30077;52.474;13.326;2023-08-01T08:49:00;23.40;99.90
44359;DHT22;30077;52.474;13.326;2023-08-01T08:54:01;23.10;99.90
44359;DHT22;30077;52.474;13.326;2023-08-01T08:59:02;23.20;99.90
44359;DHT22;30077;52.474;13.326;2023-08-01T09:04:03;23.30;99.90
44359;DHT22;30077;52.474;13.326;2023-08-01T09:09:10;23.50;99.90
44359;DHT22;30077;52.474;13.326;2023-08-01T09:14:13;23.70;99.90
44359;DHT22;30077;52.474;13.326;2023-08-01T09:19:18;24.20;99.90
44359;DHT22;30077;52.474;13.326;2023-08-01T09:24:20;24.90;99.90
44359;DHT22;30077;52.474;13.326;2023-08-01T09:29:22;24.70;99.90
44359;DHT22;30077;52.474;13.326;2023-08-01T09:34:26;24.30;99.90
44359;DHT22;30077;52.474;13.326;2023-08-01T09:39:27;23.50;99.90
44359;DHT22;30077;52.474;13.326;2023-08-01T09:44:29;22.70;99.90
44359;DHT22;30077;52.474;13.326;2023-08-01T09:49:31;22.30;99.90
44359;DHT22;30077;52.474;13.326;2023-08-01T09:54:31;22.80;99.90
44359;DHT22;30077;52.474;13.326;2023-08-01T09:59:33;23.50;99.90
44359;DHT22;30077;52.474;13.326;2023-08-01T10:04:37;23.70;99.90
44359;DHT22;30077;52.474;13.326;2023-08-01T10:09:41;23.20;99.90
44359;DHT22;30077;52.474;13.326;2023-08-01T10:14:42;22.50;99.90
44359;DHT22;30077;52.474;13.326;2023-08-01T10:19:42;22.20;99.90
44359;DHT22;30077;52.474;13.326;2023-08-01T10:24:45;22.20;99.90
44359;DHT22;30077;52.474;13.326;2023-08-01T10:29:56;22.40;99.90
44359;DHT22;30077;52.474;13.326;2023-08-01T10:34:58;22.40;99.90
44359;DHT22;30077;52.474;13.326;2023-08-01T10:39:59;22.30;99.90
44359;DHT22;30077;52.474;13.326;2023-08-01T10:45:00;21.70;99.90
44359;DHT22;30077;52.474;13.326;2023-08-01T10:50:01;20.50;99.90
44359;DHT22;30077;52.474;13.326;2023-08-01T10:55:04;20.00;99.90
44359;DHT22;30077;52.474;13.326;2023-08-01T11:00:06;19.70;99.90
44359;DHT22;30077;52.474;13.326;2023-08-01T11:05:11;19.50;99.90
44359;DHT22;30077;52.474;13.326;2023-08-01T11:10:13;19.30;99.90
44359;DHT22;30077;52.474;13.326;2023-08-01T11:15:14;19.00;99.90
44359;DHT22;30077;52.474;13.326;2023-08-01T11:20:16;18.90;99.90
44359;DHT22;30077;52.474;13.326;2023-08-01T11:25:18;19.10;99.90
44359;DHT22;30077;52.474;13.326;2023-08-01T11:30:19;19.70;99.90
44359;DHT22;30077;52.474;13.326;2023-08-01T11:35:19;20.40;99.90
44359;DHT22;30077;52.474;13.326;2023-08-01T11:40:20;20.90;99.90
44359;DHT22;30077;52.474;13.326;2023-08-01T11:45:22;21.10;99.90
44359;DHT22;30077;52.474;13.326;2023-08-01T11:50:24;21.30;99.90
44359;DHT22;30077;52.474;13.326;2023-08-01T11:55:28;21.50;99.90
44359;DHT22;30077;52.474;13.326;2023-08-01T12:00:29;21.70;99.90
44359;DHT22;30077;52.474;13.326;2023-08-01T12:05:30;22.00;99.90
44359;DHT22;30077;52.474;13.326;2023-08-01T12:10:38;22.40;99.90
44359;DHT22;30077;52.474;13.326;2023-08-01T12:15:43;22.50;99.90
44359;DHT22;30077;52.474;13.326;2023-08-01T12:20:44;22.60;99.90
44359;DHT22;30077;52.474;13.326;2023-08-01T12:25:45;22.00;99.90
44359;DHT22;30077;52.474;13.326;2023-08-01T12:30:46;22.10;99.90
44359;DHT22;30077;52.474;13.326;2023-08-01T12:35:47;22.60;99.90
44359;DHT22;30077;52.474;13.326;2023-08-01T12:40:49;22.60;99.90
44359;DHT22;30077;52.474;13.326;2023-08-01T12:45:49;22.80;99.90
44359;DHT22;30077;52.474;13.326;2023-08-01T12:50:50;23.10;99.90
44359;DHT22;30077;52.474;13.326;2023-08-01T12:55:51;23.10;99.90
44359;DHT22;30077;52.474;13.326;2023-08-01T13:00:53;22.90;99.90
44359;DHT22;30077;52.474;13.326;2023-08-01T13:05:54;23.10;99.90
44359;DHT22;30077;52.474;13.326;2023-08-01T13:10:56;23.20;99.90
44359;DHT22;30077;52.474;13.326;2023-08-01T13:15:59;23.20;99.90
44359;DHT22;30077;52.474;13.326;2023-08-01T13:21:00;23.50;99.90
44359;DHT22;30077;52.474;13.326;2023-08-01T13:26:01;23.60;99.90
44359;DHT22;30077;52.474;13.326;2023-08-01T13:31:02;23.40;99.90
44359;DHT22;30077;52.474;13.326;2023-08-01T13:36:04;23.60;99.90
44359;DHT22;30077;52.474;13.326;2023-08-01T13:41:05;23.80;99.90
44359;DHT22;30077;52.474;13.326;2023-08-01T13:47:04;23.70;99.90
44359;DHT22;30077;52.474;13.326;2023-08-01T13:52:05;23.70;99.90
44359;DHT22;30077;52.474;13.326;2023-08-01T13:57:06;23.50;99.90
44359;DHT22;30077;52.474;13.326;2023-08-01T14:02:07;23.50;99.90
44359;DHT22;30077;52.474;13.326;2023-08-01T14:07:07;23.50;99.90
44359;DHT22;30077;52.474;13.326;2023-08-01T14:12:08;23.60;99.90
44359;DHT22;30077;52.474;13.326;2023-08-01T14:17:09;23.70;99.90
44359;DHT22;30077;52.474;13.326;2023-08-01T14:22:09;23.90;99.90
44359;DHT22;30077;52.474;13.326;2023-08-01T14:27:10;23.80;99.90
44359;DHT22;30077;52.474;13.326;2023-08-01T14:32:11;23.60;99.90
44359;DHT22;30077;52.474;13.326;2023-08-01T14:37:11;23.50;99.90
44359;DHT22;30077;52.474;13.326;2023-08-01T14:42:12;23.40;99.90
44359;DHT22;30077;52.474;13.326;2023-08-01T14:47:13;23.30;99.90
44359;DHT22;30077;52.474;13.326;2023-08-01T14:52:13;23.30;99.90
44359;DHT22;30077;52.474;13.326;2023-08-01T14:57:14;23.40;99.90
44359;DHT22;30077;52.474;13.326;2023-08-01T15:02:15;23.10;99.90
44359;DHT22;30077;52.474;13.326;2023-08-01T15:07:16;22.80;99.90
44359;DHT22;30077;52.474;13.326;2023-08-01T15:12:21;22.50;99.90
44359;DHT22;30077;52.474;13.326;2023-08-01T15:17:24;22.00;99.90
44359;DHT22;30077;52.474;13.326;2023-08-01T15:22:25;19.50;99.90
44359;DHT22;30077;52.474;13.326;2023-08-01T15:27:26;18.70;99.90
44359;DHT22;30077;52.474;13.326;2023-08-01T15:32:26;18.60;99.90
44359;DHT22;30077;52.474;13.326;2023-08-01T15:37:27;18.50;99.90
44359;DHT22;30077;52.474;13.326;2023-08-01T15:42:28;18.70;99.90
44359;DHT22;30077;52.474;13.326;2023-08-01T15:47:29;18.90;99.90
44359;DHT22;30077;52.474;13.326;2023-08-01T15:52:30;18.80;99.90
44359;DHT22;30077;52.474;13.326;2023-08-01T15:57:30;19.10;99.90
44359;DHT22;30077;52.474;13.326;2023-08-01T16:02:31;19.80;99.90
44359;DHT22;30077;52.474;13.326;2023-08-01T16:07:32;19.70;99.90
44359;DHT22;30077;52.474;13.326;2023-08-01T16:12:32;19.50;99.90
44359;DHT22;30077;52.474;13.326;2023-08-01T16:17:33;19.10;99.90
44359;DHT22;30077;52.474;13.326;2023-08-01T16:22:36;19.40;99.90
44359;DHT22;30077;52.474;13.326;2023-08-01T16:27:37;19.80;99.90
44359;DHT22;30077;52.474;13.326;2023-08-01T16:32:38;20.10;99.90
44359;DHT22;30077;52.474;13.326;2023-08-01T16:37:40;20.50;99.90
44359;DHT22;30077;52.474;13.326;2023-08-01T16:42:41;20.50;99.90
44359;DHT22;30077;52.474;13.326;2023-08-01T16:47:42;19.70;99.90
44359;DHT22;30077;52.474;13.326;2023-08-01T16:52:44;19.10;99.90
44359;DHT22;30077;52.474;13.326;2023-08-01T16:57:45;19.10;99.90
44359;DHT22;30077;52.474;13.326;2023-08-01T17:02:45;20.40;99.90
44359;DHT22;30077;52.474;13.326;2023-08-01T17:07:46;21.50;99.90
44359;DHT22;30077;52.474;13.326;2023-08-01T17:12:47;21.30;99.90
44359;DHT22;30077;52.474;13.326;2023-08-01T17:17:47;20.50;99.90
44359;DHT22;30077;52.474;13.326;2023-08-01T17:22:50;19.70;99.90
44359;DHT22;30077;52.474;13.326;2023-08-01T17:27:50;19.10;99.90
44359;DHT22;30077;52.474;13.326;2023-08-01T17:32:53;18.70;99.90
44359;DHT22;30077;52.474;13.326;2023-08-01T17:37:54;18.30;99.90
44359;DHT22;30077;52.474;13.326;2023-08-01T17:42:54;18.20;99.90
44359;DHT22;30077;52.474;13.326;2023-08-01T17:47:55;18.30;99.90
44359;DHT22;30077;52.474;13.326;2023-08-01T17:52:56;18.40;99.90
44359;DHT22;30077;52.474;13.326;2023-08-01T17:57:57;18.50;99.90
44359;DHT22;30077;52.474;13.326;2023-08-01T18:02:57;18.60;99.90
44359;DHT22;30077;52.474;13.326;2023-08-01T18:07:58;18.70;99.90
44359;DHT22;30077;52.474;13.326;2023-08-01T18:12:59;18.60;99.90
44359;DHT22;30077;52.474;13.326;2023-08-01T18:18:01;18.60;99.90
44359;DHT22;30077;52.474;13.326;2023-08-01T18:23:07;18.50;99.90
44359;DHT22;30077;52.474;13.326;2023-08-01T18:28:08;18.50;99.90
44359;DHT22;30077;52.474;13.326;2023-08-01T18:33:09;18.40;99.90
44359;DHT22;30077;52.474;13.326;2023-08-01T18:38:09;18.30;99.90
44359;DHT22;30077;52.474;13.326;2023-08-01T18:43:11;18.20;99.90
44359;DHT22;30077;52.474;13.326;2023-08-01T18:48:12;18.30;99.90
44359;DHT22;30077;52.474;13.326;2023-08-01T18:53:12;18.30;99.90
44359;DHT22;30077;52.474;13.326;2023-08-01T18:58:13;18.20;99.90
44359;DHT22;30077;52.474;13.326;2023-08-01T19:03:14;18.10;99.90
44359;DHT22;30077;52.474;13.326;2023-08-01T19:08:14;18.10;99.90
44359;DHT22;30077;52.474;13.326;2023-08-01T19:13:15;17.90;99.90
44359;DHT22;30077;52.474;13.326;2023-08-01T19:18:16;17.80;99.90
44359;DHT22;30077;52.474;13.326;2023-08-01T19:23:18;17.70;99.90
44359;DHT22;30077;52.474;13.326;2023-08-01T19:28:20;17.60;99.90
44359;DHT22;30077;52.474;13.326;2023-08-01T19:33:21;17.50;99.90
44359;DHT22;30077;52.474;13.326;2023-08-01T19:38:22;17.40;99.90
44359;DHT22;30077;52.474;13.326;2023-08-01T19:43:23;17.50;99.90
44359;DHT22;30077;52.474;13.326;2023-08-01T19:48:23;17.50;99.90
44359;DHT22;30077;52.474;13.326;2023-08-01T19:53:24;17.60;99.90
44359;DHT22;30077;52.474;13.326;2023-08-01T19:58:26;17.50;99.90
44359;DHT22;30077;52.474;13.326;2023-08-01T20:03:27;17.50;99.90
44359;DHT22;30077;52.474;13.326;2023-08-01T20:08:28;17.50;99.90
44359;DHT22;30077;52.474;13.326;2023-08-01T20:13:29;17.60;99.90
44359;DHT22;30077;52.474;13.326;2023-08-01T20:18:30;17.60;99.90
44359;DHT22;30077;52.474;13.326;2023-08-01T20:23:31;17.70;99.90
44359;DHT22;30077;52.474;13.326;2023-08-01T20:28:31;17.60;99.90
44359;DHT22;30077;52.474;13.326;2023-08-01T20:33:33;17.60;99.90
44359;DHT22;30077;52.474;13.326;2023-08-01T20:38:33;17.60;99.90
44359;DHT22;30077;52.474;13.326;2023-08-01T20:43:34;17.50;99.90
44359;DHT22;30077;52.474;13.326;2023-08-01T20:48:35;17.40;99.90
44359;DHT22;30077;52.474;13.326;2023-08-01T20:53:38;17.20;99.90
44359;DHT22;30077;52.474;13.326;2023-08-01T20:58:39;17.20;99.90
44359;DHT22;30077;52.474;13.326;2023-08-01T21:03:39;17.30;99.90
44359;DHT22;30077;52.474;13.326;2023-08-01T21:08:41;17.30;99.90
44359;DHT22;30077;52.474;13.326;2023-08-01T21:13:44;17.40;99.90
44359;DHT22;30077;52.474;13.326;2023-08-01T21:18:46;17.50;99.90
44359;DHT22;30077;52.474;13.326;2023-08-01T21:23:47;17.40;99.90
44359;DHT22;30077;52.474;13.326;2023-08-01T21:28:47;17.30;99.90
44359;DHT22;30077;52.474;13.326;2023-08-01T21:33:48;17.30;99.90
44359;DHT22;30077;52.474;13.326;2023-08-01T21:38:49;17.40;99.90
44359;DHT22;30077;52.474;13.326;2023-08-01T21:43:50;17.30;99.90
44359;DHT22;30077;52.474;13.326;2023-08-01T21:48:51;17.30;99.90
44359;DHT22;30077;52.474;13.326;2023-08-01T21:53:51;17.30;99.90
44359;DHT22;30077;52.474;13.326;2023-08-01T21:58:52;17.20;99.90
44359;DHT22;30077;52.474;13.326;2023-08-01T22:03:53;17.00;99.90
44359;DHT22;30077;52.474;13.326;2023-08-01T22:08:54;16.90;99.90
44359;DHT22;30077;52.474;13.326;2023-08-01T22:13:57;16.90;99.90
44359;DHT22;30077;52.474;13.326;2023-08-01T22:18:58;16.80;99.90
44359;DHT22;30077;52.474;13.326;2023-08-01T22:23:59;16.80;99.90
44359;DHT22;30077;52.474;13.326;2023-08-01T22:29:00;16.80;99.90
44359;DHT22;30077;52.474;13.326;2023-08-01T22:34:00;16.80;99.90
44359;DHT22;30077;52.474;13.326;2023-08-01T22:39:01;16.70;99.90
44359;DHT22;30077;52.474;13.326;2023-08-01T22:44:02;16.90;99.90
44359;DHT22;30077;52.474;13.326;2023-08-01T22:49:03;16.90;99.90
44359;DHT22;30077;52.474;13.326;2023-08-01T22:54:04;17.00;99.90
44359;DHT22;30077;52.474;13.326;2023-08-01T22:59:05;17.00;99.90
44359;DHT22;30077;52.474;13.326;2023-08-01T23:04:06;17.20;99.90
44359;DHT22;30077;52.474;13.326;2023-08-01T23:09:06;17.10;99.90
44359;DHT22;30077;52.474;13.326;2023-08-01T23:14:07;17.20;99.90
44359;DHT22;30077;52.474;13.326;2023-08-01T23:19:08;17.10;99.90
44359;DHT22;30077;52.474;13.326;2023-08-01T23:24:08;17.30;99.90
44359;DHT22;30077;52.474;13.326;2023-08-01T23:29:09;17.10;99.90
44359;DHT22;30077;52.474;13.326;2023-08-01T23:34:10;17.10;99.90
44359;DHT22;30077;52.474;13.326;2023-08-01T23:39:10;17.10;99.90
44359;DHT22;30077;52.474;13.326;2023-08-01T23:44:11;17.20;99.90
44359;DHT22;30077;52.474;13.326;2023-08-01T23:49:15;17.10;99.90
44359;DHT22;30077;52.474;13.326;2023-08-01T23:54:16;17.00;99.90
44359;DHT22;30077;52.474;13.326;2023-08-01T23:59:28;17.00;99.90
